Etusivu
METAR-TAF:

METAR-TAF

Lentoasemat :

Olivia Regional Airport

Olivia, Minnesota, Yhdysvallat

Leveyspiiri: 44-46-43N, Pituuspiiri: 095-01-58W, korkeus merenpinnasta: 328 m

Tämänhetkinen sää

Tämä raportti tehtiin 21 minuuttia sitten, kello 20.15 UTC
Tuuli 8 kn lännestä/luoteesta
Lämpötila -5°C
Kosteus 73%
Ilmanpaine 1025 hPa
Näkyvyys: 16.1 km
Hajonneita pilviä 4200 ft:n korkeudessa

METAR: KOVL 262015Z AUTO 29008KT 10SM BKN042 M05/M09 A3028 RMK AO2

Aika: 14:36 (20:36 UTC)


TAF: puuttuu

Säähavainnot ja -ennusteet yli 4000 lentoasemalta (METAR- ja TAF-raportit).

Käytössä olevat sääasemat on merkitty karttaan keltaisilla ja punaisilla pisteillä.

Aseta hiiri pisteen päälle nähdäksesi sääaseman nimen.

Klikkaa sitten nähdäksesi säähavainnot ja -ennusteet.

Kartan vaihtaminen: klikkaa mustalla rastilla varustettuja vihreitä pisteitä, niin voit zoomata sisään; viivalla varustettua vihreää pistettä, niin voit zoomata ulos tai vihreitä nuolia, niin pääset viereisille kartoille.


METAR-TAF: